»·PEaware :: N314SK KBDN-KSZT

N314SK :: KBDN-KSZT

FLIGHT INFORMATION

Flight Status: Arrived
Operator: Privately registered:
United States
More flights under this callsign
Pilot: Doug L. (8712)
Aircraft: SOCATA TBM-900
(TBM9)
More flights by this aircraft type
Origin: KBDN Bend Mun
United States
Destination: KSZT Sandpoint
United States
More flights between these airports :: More routes between these airports
Route: +KS90G GEG
File this flight plan on PilotEdge
Remarks:
Altitude:
(Current/Filed)
31,000ft
Speed:
(Current/Filed)
305kts
Departed: 22-Oct-18 09:09 AM
Arrived: 22-Oct-18 10:24 AM
Distance/Time
Traveled:
317nm/1:15
Distance/Time
To Go:
Arrived

Flight Plot

Page will automatically refresh every two minutes.

Flight plan parsing failed; only flown route is shown


Map Options




Map Legend


Flown Route
Filed Route
Departure Airport
Arrival Airport
Navaid (VOR, NDB)
Fix

Horizontal Profiles

Position Reports

Time Latitude Longitude Heading Altitude Ground
Speed
22-Oct-18 09:08 44.092397 -121.201749 178 3432ft 4kts
22-Oct-18 09:09 44.096667 -121.201377 1 3418ft 18kts
22-Oct-18 09:10 44.101457 -121.201378 0 3406ft 6kts
22-Oct-18 09:11 44.092808 -121.200466 182 3572ft 114kts
22-Oct-18 09:12 44.076077 -121.177915 35 5775ft 135kts
22-Oct-18 09:13 44.109831 -121.166834 46 7981ft 142kts
22-Oct-18 09:14 44.138985 -121.125088 44 9937ft 160kts
22-Oct-18 09:15 44.171545 -121.082640 43 11882ft 168kts
22-Oct-18 09:16 44.205357 -121.039191 43 14189ft 169kts
22-Oct-18 09:17 44.240025 -120.994677 43 16310ft 175kts
22-Oct-18 09:18 44.275973 -120.948456 43 18439ft 180kts
22-Oct-18 09:19 44.312747 -120.901092 43 20493ft 188kts
22-Oct-18 09:20 44.350820 -120.851968 43 22597ft 192kts
22-Oct-18 09:21 44.390076 -120.801219 43 24427ft 199kts
22-Oct-18 09:22 44.430903 -120.748338 43 26175ft 207kts
22-Oct-18 09:23 44.472849 -120.693899 43 28050ft 212kts
22-Oct-18 09:24 44.516164 -120.637563 44 29666ft 218kts
22-Oct-18 09:25 44.561254 -120.578781 44 31011ft 234kts
22-Oct-18 09:26 44.614500 -120.509196 43 31015ft 284kts
22-Oct-18 09:27 44.674428 -120.430691 43 31004ft 304kts
22-Oct-18 09:28 44.736342 -120.349331 44 31001ft 311kts
22-Oct-18 09:29 44.797501 -120.268711 44 31001ft 314kts
22-Oct-18 09:30 44.861058 -120.184664 44 31006ft 315kts
22-Oct-18 09:31 44.923786 -120.101453 44 31010ft 315kts
22-Oct-18 09:32 44.987082 -120.017228 44 31010ft 315kts
22-Oct-18 09:33 45.059686 -119.947745 33 31008ft 317kts
22-Oct-18 09:34 45.130850 -119.885215 33 31008ft 316kts
22-Oct-18 09:35 45.204817 -119.820030 33 31008ft 316kts
22-Oct-18 09:36 45.278595 -119.754826 33 31008ft 316kts
22-Oct-18 09:37 45.352884 -119.688969 33 31008ft 315kts
22-Oct-18 09:38 45.427122 -119.622940 33 31008ft 315kts
22-Oct-18 09:39 45.500500 -119.557479 33 31008ft 315kts
22-Oct-18 09:40 45.574236 -119.491489 33 31008ft 315kts
22-Oct-18 09:41 45.647531 -119.425691 33 31008ft 316kts
22-Oct-18 09:42 45.721298 -119.359259 33 31008ft 316kts
22-Oct-18 09:43 45.793058 -119.294436 33 31010ft 316kts
22-Oct-18 09:44 45.866419 -119.227951 33 31008ft 316kts
22-Oct-18 09:45 45.938701 -119.162248 33 31010ft 316kts
22-Oct-18 09:46 46.012173 -119.095247 33 31019ft 316kts
22-Oct-18 09:47 46.084967 -119.028653 33 31026ft 315kts
22-Oct-18 09:48 46.154020 -118.965287 34 31027ft 316kts
22-Oct-18 09:49 46.227245 -118.897053 37 31023ft 317kts
22-Oct-18 09:50 46.297834 -118.821753 38 30787ft 326kts
22-Oct-18 09:51 46.373383 -118.740312 37 29336ft 350kts
22-Oct-18 09:52 46.450917 -118.656418 37 27857ft 351kts
22-Oct-18 09:53 46.528355 -118.572324 37 26355ft 347kts
22-Oct-18 09:54 46.604707 -118.489108 37 24993ft 341kts
22-Oct-18 09:55 46.677112 -118.409920 38 24985ft 316kts
22-Oct-18 09:56 46.744880 -118.340127 31 24993ft 308kts
22-Oct-18 09:57 46.815843 -118.273809 49 24983ft 303kts
22-Oct-18 09:58 46.871245 -118.178135 49 24164ft 321kts
22-Oct-18 09:59 46.932056 -118.080630 48 23187ft 329kts
22-Oct-18 10:00 46.992721 -117.983253 48 22199ft 325kts
22-Oct-18 10:01 47.053370 -117.885578 47 21207ft 324kts
22-Oct-18 10:02 47.111670 -117.791364 47 20248ft 322kts
22-Oct-18 10:03 47.160837 -117.711628 47 19416ft 316kts
22-Oct-18 10:04 47.229662 -117.599612 47 18005ft 321kts
22-Oct-18 10:05 47.288710 -117.503133 47 16607ft 315kts
22-Oct-18 10:06 47.337132 -117.423756 47 15451ft 314kts
22-Oct-18 10:07 47.403378 -117.314776 48 13838ft 307kts
22-Oct-18 10:08 47.459711 -117.221750 48 12444ft 304kts
22-Oct-18 10:09 47.505003 -117.146711 47 11467ft 295kts
22-Oct-18 10:10 47.556535 -117.061084 47 11007ft 276kts
22-Oct-18 10:11 47.604928 -116.980442 47 10979ft 265kts
22-Oct-18 10:12 47.652304 -116.901254 47 10977ft 257kts
22-Oct-18 10:13 47.699098 -116.822804 47 10981ft 256kts
22-Oct-18 10:14 47.750738 -116.755518 2 10688ft 262kts
22-Oct-18 10:15 47.822202 -116.757566 355 9969ft 267kts
22-Oct-18 10:16 47.894110 -116.761685 355 9144ft 262kts
22-Oct-18 10:17 47.964977 -116.765835 355 8171ft 259kts
22-Oct-18 10:18 48.032592 -116.769812 355 7178ft 236kts
22-Oct-18 10:19 48.090158 -116.757099 28 6495ft 200kts
22-Oct-18 10:20 48.133956 -116.716417 29 5994ft 189kts
22-Oct-18 10:21 48.177187 -116.675774 34 4932ft 169kts
22-Oct-18 10:22 48.212243 -116.642561 35 4760ft 134kts
22-Oct-18 10:23 48.239922 -116.616721 35 4093ft 102kts
22-Oct-18 10:24 48.262995 -116.594834 34 3135ft 95kts
22-Oct-18 10:25 48.284653 -116.574527 35 2388ft 87kts
22-Oct-18 10:26 48.299406 -116.560281 31 2131ft 27kts
22-Oct-18 10:27 48.297197 -116.561350 213 2131ft 24kts
22-Oct-18 10:28 48.294817 -116.563194 118 2129ft 0kts
22-Oct-18 10:29 48.294817 -116.563195 118 2129ft 0kts

Navigation Log

Ident Type
Flight plan parsing failed, navigation log unavailable